Time;durP1;ratioP1;P1;durP2;ratioP2;P2;SDS_P1;SDS_P2;PMS_P1;PMS_P2;Temp;Humidity;BMP_temperature;BMP_pressure;BME280_temperature;BME280_humidity;BME280_pressure;Samples;Min_cycle;Max_cycle;Signal;HPM_P1;HPM_P2
2021/04/16 00:03:06;;;;;;;4.15;2.25;;;6.50;52.10;;;;;;10046976;28;20407;-66
2021/04/16 00:07:57;;;;;;;6.00;2.70;;;6.50;51.00;;;;;;10921310;22;20101;-61
2021/04/16 00:12:48;;;;;;;3.15;1.88;;;6.40;52.40;;;;;;10017678;28;20032;-62
2021/04/16 00:17:39;;;;;;;2.42;1.67;;;6.40;51.50;;;;;;10016414;28;20037;-67
2021/04/16 00:22:30;;;;;;;2.72;1.83;;;6.30;52.40;;;;;;10016044;28;20472;-60
2021/04/16 00:27:21;;;;;;;2.97;2.33;;;6.20;52.50;;;;;;10018930;28;20716;-63
2021/04/16 00:32:11;;;;;;;2.92;1.85;;;6.10;52.80;;;;;;10016016;28;20053;-62
2021/04/16 00:37:03;;;;;;;2.53;1.98;;;6.10;52.70;;;;;;10015529;28;20124;-67
2021/04/16 00:41:54;;;;;;;4.47;2.22;;;6.10;53.10;;;;;;10016228;28;20056;-62
2021/04/16 00:47:01;;;;;;;3.83;1.88;;;6.00;53.50;;;;;;10015532;28;20523;-64
2021/04/16 00:51:56;;;;;;;2.30;1.30;;;5.90;53.30;;;;;;10011721;28;20526;-61
2021/04/16 00:56:49;;;;;;;3.63;2.03;;;5.90;53.60;;;;;;10013000;28;20099;-64
2021/04/16 01:01:40;;;;;;;3.75;1.92;;;5.80;53.70;;;;;;10013215;28;20068;-68
2021/04/16 01:06:31;;;;;;;4.47;2.15;;;5.70;53.80;;;;;;10012651;28;20680;-68
2021/04/16 01:11:22;;;;;;;3.65;1.75;;;5.60;54.00;;;;;;10008673;28;20092;-70
2021/04/16 01:16:16;;;;;;;2.00;1.67;;;5.70;54.10;;;;;;10008499;28;20374;-61
2021/04/16 01:21:13;;;;;;;4.05;1.52;;;5.70;53.80;;;;;;10008842;28;20037;-60
2021/04/16 01:26:07;;;;;;;2.95;1.27;;;5.70;53.80;;;;;;10011887;28;20108;-60
2021/04/16 01:31:00;;;;;;;2.67;1.48;;;5.60;54.20;;;;;;10010943;28;20078;-66
2021/04/16 01:35:51;;;;;;;5.05;1.50;;;5.60;54.30;;;;;;10009373;28;20053;-61
2021/04/16 01:40:42;;;;;;;4.68;1.08;;;5.60;54.50;;;;;;10011625;28;20037;-64
2021/04/16 01:45:32;;;;;;;4.00;1.83;;;5.50;54.70;;;;;;10011255;28;20459;-64
2021/04/16 01:50:27;;;;;;;2.83;1.45;;;5.40;54.60;;;;;;10011678;28;20022;-61
2021/04/16 01:55:19;;;;;;;2.25;1.17;;;5.50;54.20;;;;;;10009481;28;20053;-61
2021/04/16 02:00:38;;;;;;;3.30;2.28;;;5.40;54.70;;;;;;10010799;28;20026;-61
2021/04/16 02:05:29;;;;;;;2.35;1.27;;;5.40;55.30;;;;;;10010204;28;20045;-60
2021/04/16 02:10:21;;;;;;;3.65;1.20;;;5.30;55.10;;;;;;10006705;28;20139;-62
2021/04/16 02:15:13;;;;;;;1.23;1.10;;;5.30;55.30;;;;;;10008445;28;20056;-62
2021/04/16 02:20:11;;;;;;;2.33;0.95;;;5.20;55.30;;;;;;10008459;28;20036;-63
2021/04/16 02:25:06;;;;;;;3.20;1.45;;;5.20;56.10;;;;;;10011791;28;20052;-62
2021/04/16 02:29:58;;;;;;;2.67;1.33;;;5.20;55.00;;;;;;10007709;28;20153;-66
2021/04/16 02:34:49;;;;;;;1.13;0.93;;;5.10;55.90;;;;;;10008838;28;20045;-70
2021/04/16 02:39:41;;;;;;;3.17;1.20;;;5.10;55.90;;;;;;10001919;28;21419;-61
2021/04/16 02:44:32;;;;;;;1.52;0.95;;;5.00;56.10;;;;;;10003293;28;20026;-61
2021/04/16 02:49:22;;;;;;;2.58;1.13;;;5.10;55.60;;;;;;10002359;28;20542;-65
2021/04/16 02:54:14;;;;;;;2.22;1.02;;;5.00;56.10;;;;;;10001489;28;20041;-69
2021/04/16 02:59:04;;;;;;;1.38;0.93;;;4.90;56.10;;;;;;10001819;28;20418;-60
2021/04/16 03:03:56;;;;;;;1.52;1.08;;;4.80;56.50;;;;;;10002938;28;20033;-63
2021/04/16 03:08:52;;;;;;;4.15;1.23;;;4.80;56.90;;;;;;10000176;28;20057;-60
2021/04/16 03:13:42;;;;;;;1.52;0.90;;;4.80;55.90;;;;;;10001875;28;20474;-64
2021/04/16 03:18:33;;;;;;;3.17;1.70;;;4.80;55.80;;;;;;10001691;28;20040;-62
2021/04/16 03:23:24;;;;;;;2.63;1.70;;;4.80;56.90;;;;;;10001058;28;20038;-61
2021/04/16 03:28:15;;;;;;;1.67;1.25;;;4.60;56.80;;;;;;10002683;28;20827;-66
2021/04/16 03:33:06;;;;;;;1.58;1.13;;;4.60;57.20;;;;;;10001740;28;20382;-60
2021/04/16 03:37:57;;;;;;;3.05;1.30;;;4.60;57.70;;;;;;10002324;28;20474;-67
2021/04/16 03:42:48;;;;;;;2.47;1.40;;;4.50;58.20;;;;;;10002215;28;20616;-70
2021/04/16 03:47:39;;;;;;;3.95;1.10;;;4.50;59.20;;;;;;10001922;28;20033;-62
2021/04/16 03:52:30;;;;;;;2.03;1.10;;;4.40;58.50;;;;;;10003031;28;20045;-60
2021/04/16 03:57:21;;;;;;;1.63;1.08;;;4.40;58.60;;;;;;10008526;28;20045;-61
2021/04/16 04:02:13;;;;;;;1.75;1.10;;;4.50;58.40;;;;;;10009702;28;20469;-65
2021/04/16 04:07:04;;;;;;;1.83;1.27;;;4.40;57.80;;;;;;10008556;28;20506;-61
2021/04/16 04:11:54;;;;;;;2.83;1.10;;;4.40;58.80;;;;;;10009040;28;20249;-66
2021/04/16 04:16:56;;;;;;;3.28;1.42;;;4.40;58.00;;;;;;10007580;28;20034;-70
2021/04/16 04:21:52;;;;;;;1.88;1.20;;;4.40;57.70;;;;;;10008174;28;20029;-63
2021/04/16 04:26:44;;;;;;;1.45;1.10;;;4.40;57.90;;;;;;10006100;28;20021;-67
2021/04/16 04:31:36;;;;;;;3.53;1.35;;;4.30;58.60;;;;;;10007426;28;20602;-75
2021/04/16 04:36:27;;;;;;;1.92;1.17;;;4.30;58.60;;;;;;10006998;28;20115;-68
2021/04/16 04:41:18;;;;;;;2.30;1.38;;;4.40;57.90;;;;;;10007062;28;20454;-71
2021/04/16 04:46:09;;;;;;;2.00;1.30;;;4.30;58.70;;;;;;10007291;28;20115;-63
2021/04/16 04:50:59;;;;;;;4.28;1.33;;;4.30;59.20;;;;;;10006791;28;20030;-67
2021/04/16 04:55:50;;;;;;;3.15;1.70;;;4.20;60.40;;;;;;10006357;28;20107;-74
2021/04/16 05:00:41;;;;;;;2.00;1.15;;;4.10;60.30;;;;;;10006183;28;20053;-64
2021/04/16 05:05:32;;;;;;;3.42;1.08;;;4.10;61.30;;;;;;10005516;28;20029;-65
2021/04/16 05:10:23;;;;;;;2.45;1.55;;;4.10;60.80;;;;;;10013359;28;20053;-67
2021/04/16 05:15:15;;;;;;;2.40;1.20;;;4.10;61.60;;;;;;10008652;28;20037;-61
2021/04/16 05:20:07;;;;;;;1.60;1.20;;;4.20;60.20;;;;;;10011841;28;20030;-68
2021/04/16 05:24:58;;;;;;;2.88;1.40;;;4.20;60.40;;;;;;10008827;28;20053;-64
2021/04/16 05:29:49;;;;;;;2.13;1.38;;;4.30;60.30;;;;;;10003925;28;20132;-64
2021/04/16 05:34:41;;;;;;;2.45;1.60;;;4.30;60.20;;;;;;10003354;28;20442;-61
2021/04/16 05:39:32;;;;;;;2.47;1.60;;;4.40;60.40;;;;;;10003818;28;20037;-70
2021/04/16 05:44:23;;;;;;;2.15;1.42;;;4.40;60.70;;;;;;10019537;28;20506;-64
2021/04/16 05:49:14;;;;;;;3.38;1.58;;;4.40;60.70;;;;;;10005940;28;20200;-63
2021/04/16 05:54:05;;;;;;;1.90;1.40;;;4.50;60.90;;;;;;10001819;28;20604;-66
2021/04/16 05:58:56;;;;;;;2.70;1.30;;;4.50;61.30;;;;;;10004348;28;20531;-61
2021/04/16 06:03:47;;;;;;;2.05;1.38;;;4.50;61.20;;;;;;10003486;28;20049;-68
2021/04/16 06:08:39;;;;;;;2.55;1.55;;;4.60;61.30;;;;;;10004221;28;20193;-60
2021/04/16 06:13:30;;;;;;;3.50;1.50;;;4.50;61.40;;;;;;10003651;28;20026;-61
2021/04/16 06:18:22;;;;;;;1.73;1.35;;;4.50;61.20;;;;;;10001669;28;20044;-68
2021/04/16 06:23:13;;;;;;;4.03;2.10;;;4.60;61.10;;;;;;10003746;28;20033;-61
2021/04/16 06:28:05;;;;;;;2.67;1.80;;;4.60;61.10;;;;;;10002571;28;20507;-65
2021/04/16 06:33:19;;;;;;;2.42;1.90;;;4.80;60.70;;;;;;10002468;28;20280;-58
2021/04/16 06:38:10;;;;;;;2.40;1.60;;;4.90;60.70;;;;;;10001772;28;20056;-70
2021/04/16 06:43:02;;;;;;;3.05;1.60;;;4.90;60.90;;;;;;10001786;28;20060;-64
2021/04/16 06:48:05;;;;;;;3.90;2.20;;;5.00;61.00;;;;;;10002451;28;20041;-66
2021/04/16 06:53:28;;;;;;;2.45;1.88;;;5.20;60.30;;;;;;10003135;28;20060;-65
2021/04/16 06:58:31;;;;;;;2.28;1.58;;;5.30;60.60;;;;;;10002746;28;20068;-62
2021/04/16 07:03:33;;;;;;;4.65;2.45;;;5.60;59.30;;;;;;10002729;28;20029;-63
2021/04/16 07:08:34;;;;;;;3.55;1.92;;;5.80;59.30;;;;;;10001986;28;20049;-60
2021/04/16 07:13:31;;;;;;;2.10;1.60;;;5.90;58.80;;;;;;10001214;28;20045;-61
2021/04/16 07:18:30;;;;;;;2.22;1.48;;;6.00;58.70;;;;;;10019932;28;20132;-63
2021/04/16 07:23:21;;;;;;;2.53;2.00;;;6.10;58.80;;;;;;10002970;28;20117;-63
2021/04/16 07:28:34;;;;;;;2.42;2.20;;;6.00;58.70;;;;;;10006199;28;21275;-62
2021/04/16 07:33:41;;;;;;;2.47;1.42;;;6.00;58.70;;;;;;10008141;28;20523;-62
2021/04/16 07:38:34;;;;;;;2.03;1.83;;;6.20;58.50;;;;;;10008051;28;20037;-60
2021/04/16 07:43:43;;;;;;;5.18;1.98;;;6.20;58.20;;;;;;10009681;28;20072;-62
2021/04/16 07:48:34;;;;;;;4.45;1.75;;;6.30;58.10;;;;;;9975910;28;20085;-61
2021/04/16 07:53:41;;;;;;;2.17;1.85;;;6.30;57.60;;;;;;9996723;28;20045;-65
2021/04/16 07:58:32;;;;;;;1.98;1.65;;;6.40;57.50;;;;;;9995329;28;20044;-58
2021/04/16 08:03:26;;;;;;;3.38;2.00;;;6.50;57.30;;;;;;9994547;28;20045;-58
2021/04/16 08:08:17;;;;;;;4.13;1.77;;;6.40;57.50;;;;;;10010207;28;20690;-60
2021/04/16 08:13:21;;;;;;;2.72;1.52;;;6.40;58.10;;;;;;9995831;28;20709;-64
2021/04/16 08:18:24;;;;;;;2.42;1.45;;;6.80;56.80;;;;;;9994402;28;20113;-61
2021/04/16 08:23:16;;;;;;;2.70;1.65;;;7.00;55.90;;;;;;9996298;28;20032;-66
2021/04/16 08:28:26;;;;;;;2.38;1.40;;;7.00;55.80;;;;;;9996300;28;20583;-67
2021/04/16 08:33:32;;;;;;;2.95;1.98;;;7.10;55.60;;;;;;9994737;28;20036;-63
2021/04/16 08:38:29;;;;;;;3.15;1.65;;;7.20;55.40;;;;;;9999177;28;20090;-61
2021/04/16 08:43:38;;;;;;;2.45;1.42;;;7.30;54.80;;;;;;9967136;28;20380;-59
2021/04/16 08:48:39;;;;;;;3.25;1.85;;;7.30;54.20;;;;;;9982333;28;20045;-61
2021/04/16 08:53:30;;;;;;;2.42;1.83;;;7.30;54.70;;;;;;9979513;28;20039;-65
2021/04/16 08:58:28;;;;;;;4.80;1.75;;;7.40;54.10;;;;;;9993204;28;20503;-66
2021/04/16 09:03:44;;;;;;;3.45;1.70;;;7.60;54.10;;;;;;9991589;28;20034;-60
2021/04/16 09:08:45;;;;;;;1.70;1.40;;;7.60;54.40;;;;;;9993085;28;20057;-62
2021/04/16 09:13:39;;;;;;;3.00;1.77;;;7.70;53.00;;;;;;9994167;28;20036;-63
2021/04/16 09:18:31;;;;;;;2.95;1.95;;;8.00;53.30;;;;;;9991536;28;20033;-64
2021/04/16 09:23:34;;;;;;;4.32;2.25;;;8.50;52.40;;;;;;9994909;28;20526;-61
2021/04/16 09:28:25;;;;;;;2.88;1.80;;;8.50;52.20;;;;;;9993666;28;20249;-59
2021/04/16 09:33:21;;;;;;;3.25;1.83;;;8.60;51.30;;;;;;9993684;28;20186;-59
2021/04/16 09:38:27;;;;;;;3.40;1.92;;;9.00;50.30;;;;;;9995898;28;20120;-62
2021/04/16 09:43:28;;;;;;;2.65;1.88;;;9.40;50.50;;;;;;9996142;28;20193;-58
2021/04/16 09:48:19;;;;;;;3.97;2.30;;;9.30;49.40;;;;;;9995435;28;20025;-61
2021/04/16 09:53:17;;;;;;;2.90;1.70;;;9.20;50.50;;;;;;9991664;28;20289;-61
2021/04/16 09:58:09;;;;;;;3.03;1.80;;;9.00;51.00;;;;;;9999115;28;20052;-72
2021/04/16 10:03:24;;;;;;;6.15;2.20;;;9.30;50.70;;;;;;10003763;28;20418;-66
2021/04/16 10:08:29;;;;;;;3.60;2.08;;;9.30;50.20;;;;;;10012608;28;20776;-68
2021/04/16 10:13:25;;;;;;;5.90;1.92;;;9.00;50.60;;;;;;9998148;28;20646;-71
2021/04/16 10:18:33;;;;;;;;;;;9.20;50.50;;;;;;9993174;28;20045;-64
2021/04/16 10:23:40;;;;;;;3.53;1.83;;;9.70;48.90;;;;;;9995774;28;20297;-59
2021/04/16 12:40:12;;;;;;;3.35;1.90;;;9.50;45.10;;;;;;9993950;28;20431;-62
2021/04/16 12:45:04;;;;;;;2.97;1.85;;;9.60;45.00;;;;;;9994528;28;20076;-61
2021/04/16 12:49:55;;;;;;;4.32;2.03;;;9.60;45.10;;;;;;9992925;28;20040;-63
2021/04/16 12:54:50;;;;;;;3.05;2.08;;;9.70;45.10;;;;;;9992491;28;20104;-59
2021/04/16 12:59:41;;;;;;;5.25;2.35;;;9.80;45.10;;;;;;9994314;28;20034;-63
2021/04/16 13:04:35;;;;;;;3.33;1.40;;;9.80;45.10;;;;;;9993762;28;20474;-60
2021/04/16 13:09:26;;;;;;;2.60;2.05;;;9.90;44.90;;;;;;9994385;28;20049;-66
2021/04/16 13:14:18;;;;;;;3.38;2.25;;;9.80;44.70;;;;;;9993211;28;20466;-60
2021/04/16 13:19:32;;;;;;;2.55;1.70;;;9.90;44.70;;;;;;9992240;28;20203;-67
2021/04/16 13:24:23;;;;;;;3.08;1.90;;;9.90;44.50;;;;;;9992755;28;20438;-68
2021/04/16 13:29:13;;;;;;;5.95;2.13;;;10.10;44.20;;;;;;9991660;28;20034;-62
2021/04/16 13:34:05;;;;;;;3.10;2.00;;;10.00;44.20;;;;;;9995468;28;20037;-58
2021/04/16 13:38:58;;;;;;;3.50;3.17;;;10.20;44.30;;;;;;9991330;28;20030;-64
2021/04/16 13:43:50;;;;;;;2.65;2.13;;;10.10;44.40;;;;;;9989334;28;20033;-62
2021/04/16 13:48:46;;;;;;;3.70;2.45;;;9.90;45.00;;;;;;9991262;28;20541;-67
2021/04/16 13:53:37;;;;;;;3.97;2.33;;;9.80;45.50;;;;;;9990372;28;20129;-71
2021/04/16 13:58:28;;;;;;;3.55;2.53;;;10.20;45.30;;;;;;9990617;28;20287;-59
2021/04/16 14:03:37;;;;;;;4.38;3.00;;;10.50;44.70;;;;;;9991327;28;20038;-53
2021/04/16 14:08:32;;;;;;;5.18;3.22;;;10.40;44.60;;;;;;9992178;28;20052;-59
2021/04/16 14:13:23;;;;;;;3.38;2.22;;;10.30;45.00;;;;;;9989982;28;20349;-69
2021/04/16 14:18:41;;;;;;;2.47;2.25;;;10.30;45.00;;;;;;9991429;28;20432;-60
2021/04/16 14:23:32;;;;;;;2.47;2.03;;;10.40;44.80;;;;;;9989224;28;20059;-60
2021/04/16 14:28:24;;;;;;;6.05;2.47;;;10.20;45.30;;;;;;9989857;28;20060;-60
2021/04/16 14:33:20;;;;;;;2.40;2.10;;;10.00;45.00;;;;;;9991412;28;20871;-63
2021/04/16 14:38:11;;;;;;;3.92;2.58;;;10.10;45.00;;;;;;9989073;28;20045;-62
2021/04/16 14:43:04;;;;;;;2.80;2.15;;;10.10;45.20;;;;;;9990510;28;20471;-59
2021/04/16 14:47:56;;;;;;;4.32;2.38;;;9.90;45.30;;;;;;9991075;28;20144;-61
2021/04/16 14:52:49;;;;;;;3.30;2.45;;;9.90;45.50;;;;;;9989680;28;20115;-72
2021/04/16 14:57:40;;;;;;;3.15;2.58;;;9.70;45.70;;;;;;9989289;28;20060;-57
2021/04/16 15:02:31;;;;;;;2.20;1.92;;;9.50;46.20;;;;;;9989338;28;20604;-65
2021/04/16 15:07:28;;;;;;;3.50;1.77;;;9.40;46.20;;;;;;9988170;28;20045;-57
2021/04/16 15:12:21;;;;;;;2.53;2.33;;;9.60;46.20;;;;;;9987859;28;21035;-54
2021/04/16 15:17:16;;;;;;;3.10;1.95;;;9.90;45.60;;;;;;9988325;28;20152;-57
2021/04/16 15:22:11;;;;;;;3.08;2.25;;;9.90;45.50;;;;;;9994069;28;20032;-59
2021/04/16 15:27:04;;;;;;;5.30;2.47;;;10.00;45.50;;;;;;9987159;28;20048;-59
2021/04/16 15:31:55;;;;;;;3.25;2.35;;;10.10;45.50;;;;;;9993185;28;20308;-59
2021/04/16 15:47:16;;;;;;;3.47;1.90;;;9.70;46.70;;;;;;9988089;28;20632;-67
2021/04/16 15:52:07;;;;;;;3.55;2.42;;;9.60;46.30;;;;;;10008278;28;20136;-63
2021/04/16 15:56:58;;;;;;;3.63;2.28;;;9.50;46.60;;;;;;10012925;28;20037;-60
2021/04/16 16:01:50;;;;;;;3.13;1.83;;;9.40;46.70;;;;;;10023099;28;20033;-69
2021/04/16 16:06:43;;;;;;;2.40;1.90;;;9.30;46.80;;;;;;10005773;28;20057;-59
2021/04/16 16:11:40;;;;;;;2.60;1.77;;;9.20;46.90;;;;;;10008464;28;20053;-66
2021/04/16 16:16:31;;;;;;;2.28;1.40;;;9.10;46.90;;;;;;10006108;28;20045;-60
2021/04/16 16:21:22;;;;;;;2.20;1.27;;;9.20;46.50;;;;;;10006017;28;20120;-63
2021/04/16 16:26:40;;;;;;;2.75;1.33;;;9.10;46.40;;;;;;10007674;28;20098;-61
2021/04/16 16:31:34;;;;;;;1.42;0.90;;;9.10;46.50;;;;;;10003587;28;20324;-61
2021/04/16 16:36:25;;;;;;;2.47;1.10;;;9.10;46.40;;;;;;10006418;28;20053;-66
2021/04/16 16:41:16;;;;;;;1.65;1.08;;;9.10;46.30;;;;;;10005889;28;20026;-64
2021/04/16 16:46:09;;;;;;;1.58;1.10;;;9.20;46.20;;;;;;10006186;28;20026;-64
2021/04/16 16:51:01;;;;;;;3.03;1.50;;;9.10;46.50;;;;;;10007007;28;20041;-59
2021/04/16 16:55:56;;;;;;;1.95;1.02;;;8.90;46.80;;;;;;10006409;28;20057;-70
2021/04/16 17:00:59;;;;;;;1.15;0.90;;;8.80;47.10;;;;;;10005186;28;20043;-63
2021/04/16 17:05:50;;;;;;;2.53;1.42;;;8.80;47.20;;;;;;10004917;28;20080;-59
2021/04/16 17:10:41;;;;;;;2.28;1.20;;;8.80;47.00;;;;;;10005231;28;20550;-65
2021/04/16 17:15:40;;;;;;;2.25;0.90;;;8.80;47.10;;;;;;10004893;28;20040;-64
2021/04/16 17:20:31;;;;;;;2.55;2.17;;;8.70;47.40;;;;;;10005130;28;20041;-70
2021/04/16 17:25:22;;;;;;;3.05;1.73;;;8.70;47.60;;;;;;10007471;28;20041;-61
2021/04/16 17:30:33;;;;;;;4.50;2.00;;;8.70;47.20;;;;;;10004840;28;20056;-60
2021/04/16 17:35:26;;;;;;;2.60;1.40;;;8.80;47.30;;;;;;10006223;28;20283;-58
2021/04/16 17:40:17;;;;;;;3.85;2.10;;;8.70;47.80;;;;;;10004631;28;20056;-60
2021/04/16 17:45:10;;;;;;;3.80;1.23;;;8.60;47.90;;;;;;10002464;28;20075;-60
2021/04/16 17:50:01;;;;;;;3.75;1.88;;;8.50;49.00;;;;;;10004427;28;20030;-61
2021/04/16 17:54:52;;;;;;;3.13;1.48;;;8.40;48.30;;;;;;10002792;28;20041;-62
2021/04/16 17:59:44;;;;;;;2.03;1.08;;;8.50;48.30;;;;;;10002758;28;20029;-64
2021/04/16 18:04:37;;;;;;;1.52;1.05;;;8.40;48.80;;;;;;10004332;28;21147;-64
2021/04/16 18:09:28;;;;;;;1.88;0.85;;;8.30;49.00;;;;;;10004807;28;20060;-63
2021/04/16 18:14:20;;;;;;;2.45;1.40;;;8.30;49.00;;;;;;10003665;28;20040;-66
2021/04/16 18:19:11;;;;;;;1.98;1.55;;;8.40;49.00;;;;;;10004548;28;20132;-60
2021/04/16 18:24:23;;;;;;;2.00;1.38;;;8.40;48.90;;;;;;10005217;28;20044;-67
2021/04/16 18:29:13;;;;;;;2.55;1.10;;;8.40;49.00;;;;;;10004422;28;20114;-65
2021/04/16 18:34:05;;;;;;;2.30;1.40;;;8.40;49.10;;;;;;10004739;28;20037;-62
2021/04/16 18:38:58;;;;;;;3.53;1.75;;;8.40;49.40;;;;;;10003175;28;20108;-60
2021/04/16 18:43:55;;;;;;;4.05;2.13;;;8.30;49.30;;;;;;10004348;28;20029;-61
2021/04/16 18:48:46;;;;;;;2.35;1.42;;;8.40;49.30;;;;;;10004295;28;20048;-63
2021/04/16 18:53:46;;;;;;;3.80;1.83;;;8.30;50.40;;;;;;10000866;28;20061;-60
2021/04/16 18:58:37;;;;;;;4.78;2.38;;;8.30;49.80;;;;;;10003968;28;20381;-63
2021/04/16 19:03:28;;;;;;;3.75;2.20;;;8.30;49.40;;;;;;10002430;28;20096;-65
2021/04/16 19:08:19;;;;;;;2.95;2.10;;;8.40;49.40;;;;;;10004624;28;20291;-64
2021/04/16 19:13:11;;;;;;;4.70;2.55;;;8.40;49.30;;;;;;10003707;28;20048;-64
2021/04/16 19:18:04;;;;;;;3.97;2.20;;;8.40;49.30;;;;;;10002679;28;20499;-66
2021/04/16 19:22:59;;;;;;;4.13;2.10;;;8.40;49.50;;;;;;10003875;28;20401;-65
2021/04/16 19:27:50;;;;;;;2.47;1.87;;;8.40;49.40;;;;;;10011895;28;20168;-67
2021/04/16 19:32:41;;;;;;;2.90;1.88;;;8.40;49.80;;;;;;10012020;28;20523;-62
2021/04/16 19:37:34;;;;;;;4.25;2.10;;;8.30;49.80;;;;;;10012228;28;20029;-61
2021/04/16 19:42:25;;;;;;;3.35;1.63;;;8.30;50.00;;;;;;10010255;28;20550;-67
2021/04/16 20:18:34;;;;;;;5.07;2.75;;;8.10;51.60;;;;;;10009519;28;20121;-61
2021/04/16 20:23:28;;;;;;;5.97;3.35;;;8.00;52.40;;;;;;10011364;28;20045;-61
2021/04/16 20:28:20;;;;;;;4.47;2.90;;;8.00;52.80;;;;;;10009306;28;20087;-61
2021/04/16 20:33:19;;;;;;;3.25;2.30;;;7.90;52.80;;;;;;10010148;28;20042;-62
2021/04/16 20:38:12;;;;;;;2.42;1.45;;;7.90;52.70;;;;;;10008777;28;20527;-62
2021/04/16 20:43:05;;;;;;;2.28;1.50;;;7.90;53.00;;;;;;10008971;28;20030;-64
2021/04/16 20:47:57;;;;;;;3.22;1.83;;;7.90;53.10;;;;;;10007180;28;20037;-63
2021/04/16 20:52:49;;;;;;;2.90;1.63;;;7.80;54.00;;;;;;10007305;28;20049;-62
2021/04/16 20:57:40;;;;;;;2.80;1.65;;;7.80;53.80;;;;;;10008986;28;20040;-61
2021/04/16 21:02:37;;;;;;;2.35;1.60;;;7.80;54.20;;;;;;10008191;28;20482;-60
2021/04/16 21:07:28;;;;;;;2.47;1.50;;;7.70;54.80;;;;;;10007793;28;20053;-65
2021/04/16 21:12:30;;;;;;;1.75;1.35;;;7.70;54.60;;;;;;10007259;28;20033;-64
2021/04/16 21:17:23;;;;;;;2.53;1.67;;;7.70;55.30;;;;;;10005946;28;20037;-60
2021/04/16 21:22:18;;;;;;;2.40;1.73;;;7.60;55.30;;;;;;10007565;28;20506;-66
2021/04/16 21:27:21;;;;;;;3.55;1.42;;;7.60;55.80;;;;;;10006281;28;20033;-67
2021/04/16 21:32:23;;;;;;;1.75;1.20;;;7.60;56.10;;;;;;10005694;28;20069;-63
2021/04/16 21:37:18;;;;;;;3.65;1.52;;;7.50;56.20;;;;;;10008703;28;20065;-60
2021/04/16 21:42:31;;;;;;;3.15;1.50;;;7.50;55.60;;;;;;10006000;28;20282;-63
2021/04/16 21:47:29;;;;;;;2.78;1.70;;;7.50;56.90;;;;;;10004660;28;20148;-63
2021/04/16 21:52:31;;;;;;;3.42;1.52;;;7.50;56.70;;;;;;10001127;28;20041;-61
2021/04/16 21:57:23;;;;;;;1.90;1.50;;;7.50;56.80;;;;;;10004523;28;20460;-60
2021/04/16 22:02:26;;;;;;;2.47;1.25;;;7.50;56.10;;;;;;10004481;28;20030;-61
2021/04/16 22:07:25;;;;;;;2.08;1.20;;;7.50;56.90;;;;;;10004231;28;20057;-61
2021/04/16 22:12:21;;;;;;;2.88;1.58;;;7.50;56.50;;;;;;10004057;28;20156;-66
2021/04/16 22:17:14;;;;;;;;;;;7.40;57.00;;;;;;10003084;28;20645;-65
2021/04/16 22:22:22;;;;;;;2.08;1.15;;;7.40;57.20;;;;;;10019285;28;19917;-61
2021/04/16 22:27:41;;;;;;;4.68;2.13;;;7.40;57.60;;;;;;10004993;28;20025;-63
2021/04/16 22:32:32;;;;;;;1.95;1.60;;;7.30;58.40;;;;;;10006312;28;20060;-64
2021/04/16 22:37:30;;;;;;;3.38;1.42;;;7.30;57.60;;;;;;10002495;28;20223;-62
2021/04/16 22:42:25;;;;;;;2.55;1.60;;;7.30;58.00;;;;;;10003059;28;20202;-59
2021/04/16 22:47:28;;;;;;;1.95;1.45;;;7.20;58.20;;;;;;10001750;28;20037;-62
2021/04/16 22:52:23;;;;;;;1.83;1.50;;;7.20;58.80;;;;;;10003034;28;20095;-65
2021/04/16 22:57:22;;;;;;;3.60;1.60;;;7.10;59.00;;;;;;10003024;28;20043;-60
2021/04/16 23:02:39;;;;;;;2.08;1.73;;;7.00;58.80;;;;;;10002050;28;20030;-62
2021/04/16 23:07:35;;;;;;;2.15;1.50;;;6.90;59.70;;;;;;10002236;28;20076;-61
2021/04/16 23:12:35;;;;;;;2.35;1.77;;;6.80;60.00;;;;;;10002081;28;20037;-59
2021/04/16 23:17:26;;;;;;;2.58;1.67;;;6.80;60.60;;;;;;10001810;28;20053;-61
2021/04/16 23:22:26;;;;;;;2.95;1.90;;;6.80;59.40;;;;;;10001254;28;20033;-62
2021/04/16 23:27:35;;;;;;;3.13;2.05;;;6.70;59.80;;;;;;10001743;28;20029;-64
2021/04/16 23:32:35;;;;;;;2.03;1.65;;;6.70;60.20;;;;;;10000896;28;20223;-65
2021/04/16 23:37:38;;;;;;;5.85;1.98;;;6.60;59.80;;;;;;10001682;28;20412;-61
2021/04/16 23:42:30;;;;;;;4.10;1.80;;;6.60;59.70;;;;;;10016986;28;20059;-68
2021/04/16 23:47:21;;;;;;;3.65;1.88;;;6.60;59.10;;;;;;10001791;28;21115;-62
2021/04/16 23:52:14;;;;;;;3.33;2.10;;;6.60;59.10;;;;;;10001909;28;20574;-59
2021/04/16 23:57:06;;;;;;;4.72;2.25;;;6.60;59.90;;;;;;10001571;28;20053;-63
